sensor_id;sensor_type;location;lat;lon;timestamp;P1;durP1;ratioP1;P2;durP2;ratioP2
28551;SDS011;15752;49.560;8.708;2023-04-05T00:01:17;2.90;;;1.87;;
28551;SDS011;15752;49.560;8.708;2023-04-05T00:03:46;3.07;;;1.67;;
28551;SDS011;15752;49.560;8.708;2023-04-05T00:06:15;2.80;;;1.63;;
28551;SDS011;15752;49.560;8.708;2023-04-05T00:08:45;2.20;;;1.90;;
28551;SDS011;15752;49.560;8.708;2023-04-05T00:11:15;2.60;;;1.93;;
28551;SDS011;15752;49.560;8.708;2023-04-05T00:13:44;3.63;;;1.80;;
28551;SDS011;15752;49.560;8.708;2023-04-05T00:16:12;2.70;;;1.80;;
28551;SDS011;15752;49.560;8.708;2023-04-05T00:18:41;2.83;;;1.73;;
28551;SDS011;15752;49.560;8.708;2023-04-05T00:21:15;2.67;;;1.80;;
28551;SDS011;15752;49.560;8.708;2023-04-05T00:23:48;3.43;;;1.60;;
28551;SDS011;15752;49.560;8.708;2023-04-05T00:26:18;2.60;;;1.67;;
28551;SDS011;15752;49.560;8.708;2023-04-05T00:28:52;3.37;;;1.77;;
28551;SDS011;15752;49.560;8.708;2023-04-05T00:31:21;2.13;;;1.50;;
28551;SDS011;15752;49.560;8.708;2023-04-05T00:33:49;2.50;;;1.90;;
28551;SDS011;15752;49.560;8.708;2023-04-05T00:36:19;2.77;;;1.70;;
28551;SDS011;15752;49.560;8.708;2023-04-05T00:38:49;3.10;;;1.70;;
28551;SDS011;15752;49.560;8.708;2023-04-05T00:41:17;2.50;;;1.60;;
28551;SDS011;15752;49.560;8.708;2023-04-05T00:43:45;2.70;;;1.60;;
28551;SDS011;15752;49.560;8.708;2023-04-05T00:46:14;2.93;;;1.90;;
28551;SDS011;15752;49.560;8.708;2023-04-05T00:48:43;2.63;;;1.77;;
28551;SDS011;15752;49.560;8.708;2023-04-05T00:51:12;2.77;;;1.80;;
28551;SDS011;15752;49.560;8.708;2023-04-05T00:53:40;3.30;;;2.07;;
28551;SDS011;15752;49.560;8.708;2023-04-05T00:56:11;2.83;;;2.00;;
28551;SDS011;15752;49.560;8.708;2023-04-05T00:58:42;2.50;;;1.73;;
28551;SDS011;15752;49.560;8.708;2023-04-05T01:01:11;3.83;;;2.13;;
28551;SDS011;15752;49.560;8.708;2023-04-05T01:03:46;2.33;;;1.70;;
28551;SDS011;15752;49.560;8.708;2023-04-05T01:06:21;2.33;;;2.13;;
28551;SDS011;15752;49.560;8.708;2023-04-05T01:09:08;2.77;;;2.03;;
28551;SDS011;15752;49.560;8.708;2023-04-05T01:11:48;2.87;;;1.77;;
28551;SDS011;15752;49.560;8.708;2023-04-05T01:14:19;2.83;;;1.70;;
28551;SDS011;15752;49.560;8.708;2023-04-05T01:16:48;3.53;;;2.30;;
28551;SDS011;15752;49.560;8.708;2023-04-05T01:19:16;3.97;;;1.80;;
28551;SDS011;15752;49.560;8.708;2023-04-05T01:21:51;2.90;;;1.90;;
28551;SDS011;15752;49.560;8.708;2023-04-05T01:24:48;2.47;;;2.17;;
28551;SDS011;15752;49.560;8.708;2023-04-05T01:27:36;3.87;;;2.03;;
28551;SDS011;15752;49.560;8.708;2023-04-05T01:30:39;2.93;;;2.20;;
28551;SDS011;15752;49.560;8.708;2023-04-05T01:33:12;3.10;;;2.13;;
28551;SDS011;15752;49.560;8.708;2023-04-05T01:35:47;3.70;;;1.90;;
28551;SDS011;15752;49.560;8.708;2023-04-05T01:38:23;2.97;;;2.23;;
28551;SDS011;15752;49.560;8.708;2023-04-05T01:40:54;2.73;;;2.00;;
28551;SDS011;15752;49.560;8.708;2023-04-05T01:43:23;3.97;;;2.50;;
28551;SDS011;15752;49.560;8.708;2023-04-05T01:45:54;2.47;;;2.00;;
28551;SDS011;15752;49.560;8.708;2023-04-05T01:48:22;3.13;;;2.43;;
28551;SDS011;15752;49.560;8.708;2023-04-05T01:50:51;3.63;;;2.23;;
28551;SDS011;15752;49.560;8.708;2023-04-05T01:53:20;2.90;;;2.10;;
28551;SDS011;15752;49.560;8.708;2023-04-05T01:55:48;3.13;;;2.20;;
28551;SDS011;15752;49.560;8.708;2023-04-05T01:58:17;2.73;;;2.27;;
28551;SDS011;15752;49.560;8.708;2023-04-05T02:00:46;2.50;;;2.30;;
28551;SDS011;15752;49.560;8.708;2023-04-05T02:03:16;4.77;;;2.37;;
28551;SDS011;15752;49.560;8.708;2023-04-05T02:05:44;6.47;;;2.90;;
28551;SDS011;15752;49.560;8.708;2023-04-05T02:08:13;3.53;;;2.50;;
28551;SDS011;15752;49.560;8.708;2023-04-05T02:10:47;3.20;;;2.63;;
28551;SDS011;15752;49.560;8.708;2023-04-05T02:13:16;3.33;;;2.63;;
28551;SDS011;15752;49.560;8.708;2023-04-05T02:15:46;3.60;;;2.83;;
28551;SDS011;15752;49.560;8.708;2023-04-05T02:18:17;4.00;;;2.43;;
28551;SDS011;15752;49.560;8.708;2023-04-05T02:20:48;4.23;;;2.93;;
28551;SDS011;15752;49.560;8.708;2023-04-05T02:23:17;3.03;;;2.27;;
28551;SDS011;15752;49.560;8.708;2023-04-05T02:25:47;3.27;;;2.70;;
28551;SDS011;15752;49.560;8.708;2023-04-05T02:28:15;3.43;;;2.20;;
28551;SDS011;15752;49.560;8.708;2023-04-05T02:30:44;4.90;;;2.60;;
28551;SDS011;15752;49.560;8.708;2023-04-05T02:33:16;4.30;;;2.77;;
28551;SDS011;15752;49.560;8.708;2023-04-05T02:35:48;3.77;;;2.70;;
28551;SDS011;15752;49.560;8.708;2023-04-05T02:38:18;4.00;;;2.87;;
28551;SDS011;15752;49.560;8.708;2023-04-05T02:40:47;5.00;;;2.83;;
28551;SDS011;15752;49.560;8.708;2023-04-05T02:43:17;6.83;;;3.43;;
28551;SDS011;15752;49.560;8.708;2023-04-05T02:45:45;6.80;;;2.90;;
28551;SDS011;15752;49.560;8.708;2023-04-05T02:48:18;5.13;;;2.87;;
28551;SDS011;15752;49.560;8.708;2023-04-05T02:50:48;6.33;;;3.17;;
28551;SDS011;15752;49.560;8.708;2023-04-05T02:53:18;2.57;;;2.23;;
28551;SDS011;15752;49.560;8.708;2023-04-05T02:55:56;4.23;;;2.67;;
28551;SDS011;15752;49.560;8.708;2023-04-05T02:58:26;3.43;;;2.70;;
28551;SDS011;15752;49.560;8.708;2023-04-05T03:01:00;2.53;;;2.30;;
28551;SDS011;15752;49.560;8.708;2023-04-05T03:03:35;3.43;;;2.60;;
28551;SDS011;15752;49.560;8.708;2023-04-05T03:06:08;4.27;;;2.50;;
28551;SDS011;15752;49.560;8.708;2023-04-05T03:08:48;5.00;;;2.60;;
28551;SDS011;15752;49.560;8.708;2023-04-05T03:11:30;3.73;;;2.50;;
28551;SDS011;15752;49.560;8.708;2023-04-05T03:13:59;2.80;;;2.10;;
28551;SDS011;15752;49.560;8.708;2023-04-05T03:16:36;4.67;;;2.67;;
28551;SDS011;15752;49.560;8.708;2023-04-05T03:19:21;3.63;;;2.20;;
28551;SDS011;15752;49.560;8.708;2023-04-05T03:21:59;4.63;;;2.97;;
28551;SDS011;15752;49.560;8.708;2023-04-05T03:24:32;3.97;;;2.37;;
28551;SDS011;15752;49.560;8.708;2023-04-05T03:27:03;4.57;;;2.83;;
28551;SDS011;15752;49.560;8.708;2023-04-05T03:29:40;4.03;;;3.03;;
28551;SDS011;15752;49.560;8.708;2023-04-05T03:32:13;3.17;;;2.60;;
28551;SDS011;15752;49.560;8.708;2023-04-05T03:34:51;4.00;;;2.80;;
28551;SDS011;15752;49.560;8.708;2023-04-05T03:37:21;5.07;;;3.30;;
28551;SDS011;15752;49.560;8.708;2023-04-05T03:39:58;3.77;;;3.17;;
28551;SDS011;15752;49.560;8.708;2023-04-05T03:42:27;5.77;;;3.53;;
28551;SDS011;15752;49.560;8.708;2023-04-05T03:44:55;4.90;;;3.30;;
28551;SDS011;15752;49.560;8.708;2023-04-05T03:47:27;3.80;;;3.13;;
28551;SDS011;15752;49.560;8.708;2023-04-05T03:50:07;5.13;;;3.30;;
28551;SDS011;15752;49.560;8.708;2023-04-05T03:52:36;3.03;;;2.73;;
28551;SDS011;15752;49.560;8.708;2023-04-05T03:55:05;5.43;;;3.30;;
28551;SDS011;15752;49.560;8.708;2023-04-05T03:57:42;5.80;;;3.40;;
28551;SDS011;15752;49.560;8.708;2023-04-05T04:00:21;4.50;;;3.20;;
28551;SDS011;15752;49.560;8.708;2023-04-05T04:03:22;4.60;;;3.70;;
28551;SDS011;15752;49.560;8.708;2023-04-05T04:05:56;5.67;;;3.53;;
28551;SDS011;15752;49.560;8.708;2023-04-05T04:08:26;3.53;;;3.13;;
28551;SDS011;15752;49.560;8.708;2023-04-05T04:10:57;5.57;;;3.27;;
28551;SDS011;15752;49.560;8.708;2023-04-05T04:13:33;4.70;;;3.30;;
28551;SDS011;15752;49.560;8.708;2023-04-05T04:16:27;5.37;;;3.40;;
28551;SDS011;15752;49.560;8.708;2023-04-05T04:19:19;5.03;;;3.13;;
28551;SDS011;15752;49.560;8.708;2023-04-05T04:22:04;3.83;;;3.00;;
28551;SDS011;15752;49.560;8.708;2023-04-05T04:24:54;5.43;;;3.80;;
28551;SDS011;15752;49.560;8.708;2023-04-05T04:27:31;5.43;;;3.70;;
28551;SDS011;15752;49.560;8.708;2023-04-05T04:30:34;4.63;;;3.67;;
28551;SDS011;15752;49.560;8.708;2023-04-05T04:33:12;5.87;;;3.70;;
28551;SDS011;15752;49.560;8.708;2023-04-05T04:35:53;4.17;;;3.13;;
28551;SDS011;15752;49.560;8.708;2023-04-05T04:38:29;5.30;;;3.27;;
28551;SDS011;15752;49.560;8.708;2023-04-05T04:41:19;5.67;;;3.13;;
28551;SDS011;15752;49.560;8.708;2023-04-05T04:44:11;3.97;;;2.67;;
28551;SDS011;15752;49.560;8.708;2023-04-05T04:47:12;5.67;;;2.50;;
28551;SDS011;15752;49.560;8.708;2023-04-05T04:50:08;3.37;;;2.77;;
28551;SDS011;15752;49.560;8.708;2023-04-05T04:52:37;3.63;;;2.50;;
28551;SDS011;15752;49.560;8.708;2023-04-05T04:55:08;5.03;;;3.00;;
28551;SDS011;15752;49.560;8.708;2023-04-05T04:57:39;4.03;;;2.50;;
28551;SDS011;15752;49.560;8.708;2023-04-05T05:00:08;5.23;;;2.73;;
28551;SDS011;15752;49.560;8.708;2023-04-05T05:02:41;4.87;;;3.10;;
28551;SDS011;15752;49.560;8.708;2023-04-05T05:05:13;3.40;;;2.50;;
28551;SDS011;15752;49.560;8.708;2023-04-05T05:07:42;2.93;;;2.40;;
28551;SDS011;15752;49.560;8.708;2023-04-05T05:10:12;4.37;;;3.00;;
28551;SDS011;15752;49.560;8.708;2023-04-05T05:12:41;5.27;;;3.00;;
28551;SDS011;15752;49.560;8.708;2023-04-05T05:15:13;5.83;;;3.67;;
28551;SDS011;15752;49.560;8.708;2023-04-05T05:17:42;4.77;;;3.37;;
28551;SDS011;15752;49.560;8.708;2023-04-05T05:20:18;4.80;;;3.60;;
28551;SDS011;15752;49.560;8.708;2023-04-05T05:22:48;5.87;;;4.23;;
28551;SDS011;15752;49.560;8.708;2023-04-05T05:25:25;5.83;;;4.23;;
28551;SDS011;15752;49.560;8.708;2023-04-05T05:27:55;7.83;;;5.13;;
28551;SDS011;15752;49.560;8.708;2023-04-05T05:30:26;6.27;;;4.50;;
28551;SDS011;15752;49.560;8.708;2023-04-05T05:32:55;6.17;;;4.53;;
28551;SDS011;15752;49.560;8.708;2023-04-05T05:35:28;6.47;;;4.83;;
28551;SDS011;15752;49.560;8.708;2023-04-05T05:37:56;6.50;;;4.23;;
28551;SDS011;15752;49.560;8.708;2023-04-05T05:40:26;5.40;;;4.10;;
28551;SDS011;15752;49.560;8.708;2023-04-05T05:42:55;5.93;;;4.47;;
28551;SDS011;15752;49.560;8.708;2023-04-05T05:45:26;8.60;;;4.53;;
28551;SDS011;15752;49.560;8.708;2023-04-05T05:47:56;6.63;;;4.43;;
28551;SDS011;15752;49.560;8.708;2023-04-05T05:50:24;9.67;;;4.80;;
28551;SDS011;15752;49.560;8.708;2023-04-05T05:53:02;9.20;;;4.43;;
28551;SDS011;15752;49.560;8.708;2023-04-05T05:55:32;6.70;;;4.10;;
28551;SDS011;15752;49.560;8.708;2023-04-05T05:58:00;6.67;;;3.90;;
28551;SDS011;15752;49.560;8.708;2023-04-05T06:00:29;8.73;;;4.33;;
28551;SDS011;15752;49.560;8.708;2023-04-05T06:03:01;5.23;;;4.27;;
28551;SDS011;15752;49.560;8.708;2023-04-05T06:05:32;5.93;;;4.07;;
28551;SDS011;15752;49.560;8.708;2023-04-05T06:08:04;6.63;;;4.07;;
28551;SDS011;15752;49.560;8.708;2023-04-05T06:10:39;4.40;;;3.60;;
28551;SDS011;15752;49.560;8.708;2023-04-05T06:13:08;5.93;;;3.60;;
28551;SDS011;15752;49.560;8.708;2023-04-05T06:15:36;4.00;;;3.30;;
28551;SDS011;15752;49.560;8.708;2023-04-05T06:18:08;4.30;;;3.20;;
28551;SDS011;15752;49.560;8.708;2023-04-05T06:20:37;8.03;;;4.80;;
28551;SDS011;15752;49.560;8.708;2023-04-05T06:23:08;5.30;;;3.77;;
28551;SDS011;15752;49.560;8.708;2023-04-05T06:25:38;7.67;;;5.77;;
28551;SDS011;15752;49.560;8.708;2023-04-05T06:28:07;15.93;;;6.00;;
28551;SDS011;15752;49.560;8.708;2023-04-05T06:30:36;7.97;;;5.50;;
28551;SDS011;15752;49.560;8.708;2023-04-05T06:33:09;7.90;;;5.63;;
28551;SDS011;15752;49.560;8.708;2023-04-05T06:35:38;7.37;;;4.60;;
28551;SDS011;15752;49.560;8.708;2023-04-05T06:38:16;6.87;;;4.43;;
28551;SDS011;15752;49.560;8.708;2023-04-05T06:40:50;6.50;;;4.00;;
28551;SDS011;15752;49.560;8.708;2023-04-05T06:43:18;4.53;;;3.67;;
28551;SDS011;15752;49.560;8.708;2023-04-05T06:45:59;4.60;;;3.40;;
28551;SDS011;15752;49.560;8.708;2023-04-05T06:48:28;4.83;;;3.20;;
28551;SDS011;15752;49.560;8.708;2023-04-05T06:50:57;5.17;;;3.20;;
28551;SDS011;15752;49.560;8.708;2023-04-05T06:53:28;4.53;;;3.30;;
28551;SDS011;15752;49.560;8.708;2023-04-05T06:55:59;5.20;;;3.23;;
28551;SDS011;15752;49.560;8.708;2023-04-05T06:58:28;5.93;;;2.97;;
28551;SDS011;15752;49.560;8.708;2023-04-05T07:01:00;6.23;;;3.33;;
28551;SDS011;15752;49.560;8.708;2023-04-05T07:03:29;3.40;;;3.00;;
28551;SDS011;15752;49.560;8.708;2023-04-05T07:05:59;4.50;;;3.40;;
28551;SDS011;15752;49.560;8.708;2023-04-05T07:08:29;6.87;;;3.90;;
28551;SDS011;15752;49.560;8.708;2023-04-05T07:11:00;6.10;;;3.53;;
28551;SDS011;15752;49.560;8.708;2023-04-05T07:13:29;4.50;;;3.40;;
28551;SDS011;15752;49.560;8.708;2023-04-05T07:15:59;4.27;;;3.27;;
28551;SDS011;15752;49.560;8.708;2023-04-05T07:18:29;4.80;;;3.50;;
28551;SDS011;15752;49.560;8.708;2023-04-05T07:21:00;6.90;;;4.03;;
28551;SDS011;15752;49.560;8.708;2023-04-05T07:23:30;5.17;;;3.87;;
28551;SDS011;15752;49.560;8.708;2023-04-05T07:26:00;6.07;;;4.07;;
28551;SDS011;15752;49.560;8.708;2023-04-05T07:28:31;4.40;;;3.53;;
28551;SDS011;15752;49.560;8.708;2023-04-05T07:31:01;4.23;;;3.20;;
28551;SDS011;15752;49.560;8.708;2023-04-05T07:33:34;4.60;;;3.20;;
28551;SDS011;15752;49.560;8.708;2023-04-05T07:36:02;6.10;;;3.73;;
28551;SDS011;15752;49.560;8.708;2023-04-05T07:38:35;4.60;;;3.40;;
28551;SDS011;15752;49.560;8.708;2023-04-05T07:41:05;3.87;;;3.00;;
28551;SDS011;15752;49.560;8.708;2023-04-05T07:43:34;5.37;;;3.13;;
28551;SDS011;15752;49.560;8.708;2023-04-05T07:46:03;6.80;;;3.53;;
28551;SDS011;15752;49.560;8.708;2023-04-05T07:48:31;4.77;;;3.80;;
28551;SDS011;15752;49.560;8.708;2023-04-05T07:51:04;4.53;;;3.30;;
28551;SDS011;15752;49.560;8.708;2023-04-05T07:53:36;3.87;;;3.20;;
28551;SDS011;15752;49.560;8.708;2023-04-05T07:56:12;7.87;;;3.40;;
28551;SDS011;15752;49.560;8.708;2023-04-05T07:58:46;5.37;;;3.00;;
28551;SDS011;15752;49.560;8.708;2023-04-05T08:01:17;4.20;;;2.73;;
28551;SDS011;15752;49.560;8.708;2023-04-05T08:03:54;4.63;;;2.80;;
28551;SDS011;15752;49.560;8.708;2023-04-05T08:06:24;6.13;;;2.73;;
28551;SDS011;15752;49.560;8.708;2023-04-05T08:08:56;4.87;;;2.70;;
28551;SDS011;15752;49.560;8.708;2023-04-05T08:11:26;3.90;;;2.90;;
28551;SDS011;15752;49.560;8.708;2023-04-05T08:13:54;5.37;;;2.97;;
28551;SDS011;15752;49.560;8.708;2023-04-05T08:16:23;6.63;;;3.00;;
28551;SDS011;15752;49.560;8.708;2023-04-05T08:18:51;3.40;;;2.47;;
28551;SDS011;15752;49.560;8.708;2023-04-05T08:21:20;4.17;;;2.30;;
28551;SDS011;15752;49.560;8.708;2023-04-05T08:23:49;4.63;;;2.30;;
28551;SDS011;15752;49.560;8.708;2023-04-05T08:26:27;3.40;;;2.60;;
28551;SDS011;15752;49.560;8.708;2023-04-05T08:28:55;3.23;;;2.50;;
28551;SDS011;15752;49.560;8.708;2023-04-05T08:31:24;3.73;;;2.60;;
28551;SDS011;15752;49.560;8.708;2023-04-05T08:33:53;4.80;;;2.37;;
28551;SDS011;15752;49.560;8.708;2023-04-05T08:36:21;3.60;;;1.90;;
28551;SDS011;15752;49.560;8.708;2023-04-05T08:38:49;3.23;;;2.20;;
28551;SDS011;15752;49.560;8.708;2023-04-05T08:41:18;3.40;;;2.20;;
28551;SDS011;15752;49.560;8.708;2023-04-05T08:43:54;3.63;;;2.17;;
28551;SDS011;15752;49.560;8.708;2023-04-05T08:46:24;3.30;;;2.47;;
28551;SDS011;15752;49.560;8.708;2023-04-05T08:48:53;3.63;;;2.40;;
28551;SDS011;15752;49.560;8.708;2023-04-05T08:51:23;3.33;;;2.10;;
28551;SDS011;15752;49.560;8.708;2023-04-05T08:53:53;3.90;;;2.53;;
28551;SDS011;15752;49.560;8.708;2023-04-05T08:56:24;4.87;;;2.50;;
28551;SDS011;15752;49.560;8.708;2023-04-05T08:58:56;3.37;;;3.07;;
28551;SDS011;15752;49.560;8.708;2023-04-05T09:01:30;6.77;;;2.83;;
28551;SDS011;15752;49.560;8.708;2023-04-05T09:04:01;4.27;;;3.10;;
28551;SDS011;15752;49.560;8.708;2023-04-05T09:06:34;4.33;;;3.00;;
28551;SDS011;15752;49.560;8.708;2023-04-05T09:09:04;6.83;;;3.30;;
28551;SDS011;15752;49.560;8.708;2023-04-05T09:11:34;5.37;;;3.10;;
28551;SDS011;15752;49.560;8.708;2023-04-05T09:14:04;5.07;;;3.00;;
28551;SDS011;15752;49.560;8.708;2023-04-05T09:16:35;3.33;;;2.90;;
28551;SDS011;15752;49.560;8.708;2023-04-05T09:19:06;3.63;;;2.83;;
28551;SDS011;15752;49.560;8.708;2023-04-05T09:27:28;5.20;;;2.77;;
28551;SDS011;15752;49.560;8.708;2023-04-05T09:29:59;4.47;;;3.07;;
28551;SDS011;15752;49.560;8.708;2023-04-05T09:32:28;5.07;;;2.73;;
28551;SDS011;15752;49.560;8.708;2023-04-05T09:34:59;3.57;;;3.00;;
28551;SDS011;15752;49.560;8.708;2023-04-05T09:37:32;5.77;;;2.50;;
28551;SDS011;15752;49.560;8.708;2023-04-05T09:40:01;3.40;;;2.60;;
28551;SDS011;15752;49.560;8.708;2023-04-05T09:42:33;3.43;;;2.73;;
28551;SDS011;15752;49.560;8.708;2023-04-05T09:45:12;4.33;;;2.83;;
28551;SDS011;15752;49.560;8.708;2023-04-05T09:48:07;5.43;;;2.90;;
28551;SDS011;15752;49.560;8.708;2023-04-05T09:50:36;5.63;;;2.97;;
28551;SDS011;15752;49.560;8.708;2023-04-05T09:53:07;5.60;;;2.60;;
28551;SDS011;15752;49.560;8.708;2023-04-05T09:55:41;4.50;;;2.77;;
28551;SDS011;15752;49.560;8.708;2023-04-05T09:58:10;3.20;;;2.50;;
28551;SDS011;15752;49.560;8.708;2023-04-05T10:00:48;3.80;;;3.00;;
28551;SDS011;15752;49.560;8.708;2023-04-05T10:03:28;4.33;;;2.87;;
28551;SDS011;15752;49.560;8.708;2023-04-05T10:05:57;4.87;;;3.00;;
28551;SDS011;15752;49.560;8.708;2023-04-05T10:08:26;3.80;;;2.50;;
28551;SDS011;15752;49.560;8.708;2023-04-05T10:10:55;3.37;;;2.60;;
28551;SDS011;15752;49.560;8.708;2023-04-05T10:13:26;3.90;;;2.87;;
28551;SDS011;15752;49.560;8.708;2023-04-05T10:15:56;4.00;;;2.77;;
28551;SDS011;15752;49.560;8.708;2023-04-05T10:18:29;3.80;;;2.70;;
28551;SDS011;15752;49.560;8.708;2023-04-05T10:21:07;2.73;;;2.30;;
28551;SDS011;15752;49.560;8.708;2023-04-05T10:23:40;4.10;;;2.37;;
28551;SDS011;15752;49.560;8.708;2023-04-05T10:26:14;4.07;;;2.80;;
28551;SDS011;15752;49.560;8.708;2023-04-05T10:28:55;2.83;;;2.50;;
28551;SDS011;15752;49.560;8.708;2023-04-05T10:31:38;3.13;;;2.83;;
28551;SDS011;15752;49.560;8.708;2023-04-05T10:34:19;4.50;;;2.93;;
28551;SDS011;15752;49.560;8.708;2023-04-05T10:37:00;3.10;;;2.50;;
28551;SDS011;15752;49.560;8.708;2023-04-05T10:39:32;2.90;;;2.40;;
28551;SDS011;15752;49.560;8.708;2023-04-05T10:42:10;7.67;;;2.87;;
28551;SDS011;15752;49.560;8.708;2023-04-05T10:44:52;3.67;;;3.20;;
28551;SDS011;15752;49.560;8.708;2023-04-05T10:47:27;3.07;;;2.60;;
28551;SDS011;15752;49.560;8.708;2023-04-05T10:49:59;5.00;;;2.83;;
28551;SDS011;15752;49.560;8.708;2023-04-05T10:52:31;4.70;;;3.30;;
28551;SDS011;15752;49.560;8.708;2023-04-05T10:55:01;4.53;;;3.10;;
28551;SDS011;15752;49.560;8.708;2023-04-05T10:57:30;6.33;;;2.67;;
28551;SDS011;15752;49.560;8.708;2023-04-05T11:00:00;4.13;;;2.90;;
28551;SDS011;15752;49.560;8.708;2023-04-05T11:02:31;7.70;;;2.63;;
28551;SDS011;15752;49.560;8.708;2023-04-05T11:05:02;4.57;;;2.93;;
28551;SDS011;15752;49.560;8.708;2023-04-05T11:07:41;3.37;;;3.00;;
28551;SDS011;15752;49.560;8.708;2023-04-05T11:10:13;3.33;;;2.83;;
28551;SDS011;15752;49.560;8.708;2023-04-05T11:13:04;4.83;;;3.20;;
28551;SDS011;15752;49.560;8.708;2023-04-05T11:15:39;6.73;;;2.93;;
28551;SDS011;15752;49.560;8.708;2023-04-05T11:18:10;3.77;;;2.83;;
28551;SDS011;15752;49.560;8.708;2023-04-05T11:20:49;3.70;;;3.17;;
28551;SDS011;15752;49.560;8.708;2023-04-05T11:23:22;3.47;;;3.00;;
28551;SDS011;15752;49.560;8.708;2023-04-05T11:25:53;6.63;;;3.60;;
28551;SDS011;15752;49.560;8.708;2023-04-05T11:28:27;3.80;;;2.83;;
28551;SDS011;15752;49.560;8.708;2023-04-05T11:30:57;3.83;;;2.93;;
28551;SDS011;15752;49.560;8.708;2023-04-05T11:33:55;5.90;;;3.50;;
28551;SDS011;15752;49.560;8.708;2023-04-05T11:36:36;5.57;;;3.37;;
28551;SDS011;15752;49.560;8.708;2023-04-05T11:39:23;3.67;;;2.80;;
28551;SDS011;15752;49.560;8.708;2023-04-05T11:41:54;5.67;;;2.87;;
28551;SDS011;15752;49.560;8.708;2023-04-05T11:44:28;5.03;;;2.50;;
28551;SDS011;15752;49.560;8.708;2023-04-05T11:47:00;3.90;;;2.87;;
28551;SDS011;15752;49.560;8.708;2023-04-05T11:49:33;3.63;;;3.33;;
28551;SDS011;15752;49.560;8.708;2023-04-05T11:52:08;3.40;;;3.10;;
28551;SDS011;15752;49.560;8.708;2023-04-05T11:54:42;4.63;;;3.20;;
28551;SDS011;15752;49.560;8.708;2023-04-05T11:57:18;3.57;;;2.97;;
28551;SDS011;15752;49.560;8.708;2023-04-05T11:59:49;4.73;;;2.90;;
28551;SDS011;15752;49.560;8.708;2023-04-05T12:02:18;2.90;;;2.60;;
28551;SDS011;15752;49.560;8.708;2023-04-05T12:04:53;3.00;;;2.63;;
28551;SDS011;15752;49.560;8.708;2023-04-05T12:07:24;5.50;;;2.90;;
28551;SDS011;15752;49.560;8.708;2023-04-05T12:10:02;3.40;;;2.80;;
28551;SDS011;15752;49.560;8.708;2023-04-05T12:12:34;3.97;;;3.00;;
28551;SDS011;15752;49.560;8.708;2023-04-05T12:15:05;4.00;;;2.93;;
28551;SDS011;15752;49.560;8.708;2023-04-05T12:17:40;3.90;;;2.93;;
28551;SDS011;15752;49.560;8.708;2023-04-05T12:20:14;3.33;;;3.03;;
28551;SDS011;15752;49.560;8.708;2023-04-05T12:22:47;4.23;;;2.80;;
28551;SDS011;15752;49.560;8.708;2023-04-05T12:25:17;6.53;;;3.40;;
28551;SDS011;15752;49.560;8.708;2023-04-05T12:27:47;5.40;;;3.33;;
28551;SDS011;15752;49.560;8.708;2023-04-05T12:30:16;5.50;;;2.90;;
28551;SDS011;15752;49.560;8.708;2023-04-05T12:32:46;3.30;;;2.93;;
28551;SDS011;15752;49.560;8.708;2023-04-05T12:35:19;3.30;;;2.73;;
28551;SDS011;15752;49.560;8.708;2023-04-05T12:37:52;3.33;;;3.00;;
28551;SDS011;15752;49.560;8.708;2023-04-05T12:40:25;3.50;;;3.03;;
28551;SDS011;15752;49.560;8.708;2023-04-05T12:43:00;4.80;;;3.10;;
28551;SDS011;15752;49.560;8.708;2023-04-05T12:45:29;4.23;;;3.27;;
28551;SDS011;15752;49.560;8.708;2023-04-05T12:48:07;2.87;;;2.57;;
28551;SDS011;15752;49.560;8.708;2023-04-05T12:50:42;3.10;;;2.60;;
28551;SDS011;15752;49.560;8.708;2023-04-05T12:53:14;5.17;;;3.00;;
28551;SDS011;15752;49.560;8.708;2023-04-05T12:55:47;4.67;;;2.97;;
28551;SDS011;15752;49.560;8.708;2023-04-05T12:58:17;5.27;;;3.13;;
28551;SDS011;15752;49.560;8.708;2023-04-05T13:00:47;3.10;;;2.80;;
28551;SDS011;15752;49.560;8.708;2023-04-05T13:03:16;4.03;;;2.80;;
28551;SDS011;15752;49.560;8.708;2023-04-05T13:05:48;5.57;;;3.00;;
28551;SDS011;15752;49.560;8.708;2023-04-05T13:08:16;4.57;;;2.97;;
28551;SDS011;15752;49.560;8.708;2023-04-05T13:10:46;4.73;;;3.53;;
28551;SDS011;15752;49.560;8.708;2023-04-05T13:13:16;3.63;;;3.10;;
28551;SDS011;15752;49.560;8.708;2023-04-05T13:15:45;4.53;;;3.33;;
28551;SDS011;15752;49.560;8.708;2023-04-05T13:18:17;4.43;;;3.20;;
28551;SDS011;15752;49.560;8.708;2023-04-05T13:20:47;3.53;;;3.10;;
28551;SDS011;15752;49.560;8.708;2023-04-05T13:23:16;3.40;;;2.90;;
28551;SDS011;15752;49.560;8.708;2023-04-05T13:25:44;6.07;;;3.33;;
28551;SDS011;15752;49.560;8.708;2023-04-05T13:28:13;3.90;;;3.10;;
28551;SDS011;15752;49.560;8.708;2023-04-05T13:30:41;4.07;;;2.80;;
28551;SDS011;15752;49.560;8.708;2023-04-05T13:33:10;3.10;;;2.80;;
28551;SDS011;15752;49.560;8.708;2023-04-05T13:35:38;3.23;;;2.93;;
28551;SDS011;15752;49.560;8.708;2023-04-05T13:38:09;5.30;;;3.00;;
28551;SDS011;15752;49.560;8.708;2023-04-05T13:40:37;3.20;;;2.80;;
28551;SDS011;15752;49.560;8.708;2023-04-05T13:43:06;4.13;;;3.13;;
28551;SDS011;15752;49.560;8.708;2023-04-05T13:45:35;4.43;;;2.83;;
28551;SDS011;15752;49.560;8.708;2023-04-05T13:48:05;5.93;;;3.27;;
28551;SDS011;15752;49.560;8.708;2023-04-05T13:50:33;6.17;;;3.10;;
28551;SDS011;15752;49.560;8.708;2023-04-05T13:53:02;3.67;;;2.40;;
28551;SDS011;15752;49.560;8.708;2023-04-05T13:55:32;3.23;;;2.93;;
28551;SDS011;15752;49.560;8.708;2023-04-05T13:58:00;3.67;;;2.60;;
28551;SDS011;15752;49.560;8.708;2023-04-05T14:00:29;4.10;;;3.10;;
28551;SDS011;15752;49.560;8.708;2023-04-05T14:02:57;3.97;;;2.40;;
28551;SDS011;15752;49.560;8.708;2023-04-05T14:05:26;6.47;;;3.10;;
28551;SDS011;15752;49.560;8.708;2023-04-05T14:07:54;3.53;;;2.80;;
28551;SDS011;15752;49.560;8.708;2023-04-05T14:10:23;4.90;;;2.83;;
28551;SDS011;15752;49.560;8.708;2023-04-05T14:12:53;2.50;;;2.20;;
28551;SDS011;15752;49.560;8.708;2023-04-05T14:15:21;3.00;;;2.70;;
28551;SDS011;15752;49.560;8.708;2023-04-05T14:17:50;3.90;;;2.70;;
28551;SDS011;15752;49.560;8.708;2023-04-05T14:20:18;4.17;;;2.90;;
28551;SDS011;15752;49.560;8.708;2023-04-05T14:22:47;3.90;;;2.70;;
28551;SDS011;15752;49.560;8.708;2023-04-05T14:25:15;3.27;;;2.83;;
28551;SDS011;15752;49.560;8.708;2023-04-05T14:27:44;3.47;;;2.63;;
28551;SDS011;15752;49.560;8.708;2023-04-05T14:30:14;4.40;;;3.20;;
28551;SDS011;15752;49.560;8.708;2023-04-05T14:32:43;3.57;;;2.80;;
28551;SDS011;15752;49.560;8.708;2023-04-05T14:35:12;4.57;;;2.93;;
28551;SDS011;15752;49.560;8.708;2023-04-05T14:37:40;4.70;;;3.10;;
28551;SDS011;15752;49.560;8.708;2023-04-05T14:40:09;3.20;;;2.90;;
28551;SDS011;15752;49.560;8.708;2023-04-05T14:42:38;3.30;;;2.90;;
28551;SDS011;15752;49.560;8.708;2023-04-05T14:45:17;4.07;;;3.07;;
28551;SDS011;15752;49.560;8.708;2023-04-05T14:47:45;3.73;;;3.03;;
28551;SDS011;15752;49.560;8.708;2023-04-05T14:50:14;4.27;;;2.80;;
28551;SDS011;15752;49.560;8.708;2023-04-05T14:52:42;3.07;;;2.77;;
28551;SDS011;15752;49.560;8.708;2023-04-05T14:55:12;3.00;;;2.70;;
28551;SDS011;15752;49.560;8.708;2023-04-05T14:57:42;5.07;;;4.10;;
28551;SDS011;15752;49.560;8.708;2023-04-05T15:00:11;6.43;;;3.80;;
28551;SDS011;15752;49.560;8.708;2023-04-05T15:02:42;8.33;;;4.40;;
28551;SDS011;15752;49.560;8.708;2023-04-05T15:05:12;5.10;;;4.00;;
28551;SDS011;15752;49.560;8.708;2023-04-05T15:07:41;3.93;;;3.10;;
28551;SDS011;15752;49.560;8.708;2023-04-05T15:10:09;4.03;;;3.60;;
28551;SDS011;15752;49.560;8.708;2023-04-05T15:12:38;3.23;;;2.93;;
28551;SDS011;15752;49.560;8.708;2023-04-05T15:15:07;3.97;;;3.33;;
28551;SDS011;15752;49.560;8.708;2023-04-05T15:17:35;3.27;;;2.97;;
28551;SDS011;15752;49.560;8.708;2023-04-05T15:20:06;3.30;;;2.90;;
28551;SDS011;15752;49.560;8.708;2023-04-05T15:22:35;4.73;;;3.30;;
28551;SDS011;15752;49.560;8.708;2023-04-05T15:25:06;6.83;;;3.40;;